createdAt,value
2018-02-09T00:01:08.115Z,-4.10
2018-02-09T00:03:37.067Z,-4.20
2018-02-09T00:06:06.780Z,-4.00
2018-02-09T00:08:35.996Z,-4.10
2018-02-09T00:11:04.936Z,-4.10
2018-02-09T00:13:33.859Z,-4.10
2018-02-09T00:16:03.584Z,-4.30
2018-02-09T00:18:32.523Z,-4.40
2018-02-09T00:21:01.491Z,-4.40
2018-02-09T00:23:30.443Z,-4.40
2018-02-09T00:26:00.192Z,-4.30
2018-02-09T00:28:29.145Z,-4.40
2018-02-09T00:30:58.916Z,-4.20
2018-02-09T00:33:27.851Z,-4.20
2018-02-09T00:35:56.796Z,-4.20
2018-02-09T00:38:25.736Z,-4.20
2018-02-09T00:40:54.733Z,-4.00
2018-02-09T00:43:23.733Z,-3.90
2018-02-09T00:45:52.692Z,-3.80
2018-02-09T00:48:22.361Z,-3.80
2018-02-09T00:50:51.332Z,-3.80
2018-02-09T00:53:20.289Z,-3.80
2018-02-09T00:55:50.280Z,-3.70
2018-02-09T00:58:19.265Z,-3.80
2018-02-09T01:00:48.969Z,-3.70
2018-02-09T01:03:17.888Z,-3.80
2018-02-09T01:05:46.852Z,-3.70
2018-02-09T01:08:15.773Z,-3.80
2018-02-09T01:10:45.485Z,-3.70
2018-02-09T01:13:14.405Z,-3.80
2018-02-09T01:15:43.369Z,-3.70
2018-02-09T01:18:13.063Z,-3.80
2018-02-09T01:20:42.053Z,-3.80
2018-02-09T01:23:11.040Z,-3.90
2018-02-09T01:25:39.991Z,-4.10
2018-02-09T01:28:11.176Z,-4.10
2018-02-09T01:30:40.125Z,-4.20
2018-02-09T01:33:09.103Z,-4.20
2018-02-09T01:35:38.818Z,-4.40
2018-02-09T01:38:07.820Z,-4.40
2018-02-09T01:40:36.734Z,-4.50
2018-02-09T01:43:05.690Z,-4.50
2018-02-09T01:45:34.716Z,-4.60
2018-02-09T01:48:03.667Z,-4.50
2018-02-09T01:50:33.351Z,-4.40
2018-02-09T01:53:02.353Z,-4.40
2018-02-09T01:55:32.102Z,-4.30
2018-02-09T01:58:02.465Z,-4.40
2018-02-09T02:00:31.391Z,-4.30
2018-02-09T02:03:01.127Z,-4.40
2018-02-09T02:05:30.065Z,-4.40
2018-02-09T02:08:00.806Z,-4.40
2018-02-09T02:10:29.883Z,-4.40
2018-02-09T02:12:59.032Z,-4.60
2018-02-09T02:15:27.998Z,-4.70
2018-02-09T02:17:56.931Z,-4.80
2018-02-09T02:20:25.866Z,-4.90
2018-02-09T02:22:54.807Z,-4.90
2018-02-09T02:25:23.751Z,-5.10
2018-02-09T02:27:53.001Z,-5.10
2018-02-09T02:30:21.992Z,-5.20
2018-02-09T02:32:50.912Z,-5.30
2018-02-09T02:35:19.892Z,-5.40
2018-02-09T02:37:48.868Z,-5.40
2018-02-09T02:40:17.808Z,-5.50
2018-02-09T02:42:46.769Z,-5.50
2018-02-09T02:45:16.545Z,-5.60
2018-02-09T02:47:46.269Z,-5.70
2018-02-09T02:50:15.213Z,-5.70
2018-02-09T02:52:44.154Z,-5.70
2018-02-09T02:55:13.076Z,-5.80
2018-02-09T02:57:42.000Z,-5.90
2018-02-09T03:00:10.963Z,-6.00
2018-02-09T03:02:39.874Z,-6.00
2018-02-09T03:05:09.592Z,-6.00
2018-02-09T03:07:38.537Z,-6.10
2018-02-09T03:10:07.569Z,-6.10
2018-02-09T03:12:36.504Z,-6.10
2018-02-09T03:15:05.444Z,-6.10
2018-02-09T03:17:34.426Z,-6.10
2018-02-09T03:20:03.560Z,-6.10
2018-02-09T03:22:34.172Z,-6.20
2018-02-09T03:25:03.705Z,-6.30
2018-02-09T03:27:33.396Z,-6.30
2018-02-09T03:30:02.393Z,-6.40
2018-02-09T03:32:32.087Z,-6.40
2018-02-09T03:35:01.041Z,-6.40
2018-02-09T03:37:31.386Z,-6.40
2018-02-09T03:40:00.358Z,-6.30
2018-02-09T03:42:29.297Z,-6.30
2018-02-09T03:44:58.272Z,-6.30
2018-02-09T03:47:27.254Z,-6.30
2018-02-09T03:49:56.213Z,-6.40
2018-02-09T03:52:25.143Z,-6.40
2018-02-09T03:54:54.076Z,-6.50
2018-02-09T03:57:23.840Z,-6.50
2018-02-09T03:59:52.808Z,-6.50
2018-02-09T04:02:25.166Z,-6.50
2018-02-09T04:04:54.188Z,-6.50
2018-02-09T04:07:23.128Z,-6.50
2018-02-09T04:09:52.888Z,-6.50
2018-02-09T04:12:21.902Z,-6.60
2018-02-09T04:14:50.848Z,-6.50
2018-02-09T04:17:19.770Z,-6.60
2018-02-09T04:19:48.702Z,-6.50
2018-02-09T04:22:17.663Z,-6.50
2018-02-09T04:24:46.584Z,-6.60
2018-02-09T04:27:16.341Z,-6.60
2018-02-09T04:29:45.278Z,-6.70
2018-02-09T04:32:14.291Z,-6.60
2018-02-09T04:34:44.025Z,-6.70
2018-02-09T04:37:12.976Z,-6.80
2018-02-09T04:39:41.911Z,-6.80
2018-02-09T04:42:10.817Z,-6.70
2018-02-09T04:44:39.732Z,-6.80
2018-02-09T04:47:08.778Z,-6.80
2018-02-09T04:49:37.754Z,-6.80
2018-02-09T04:52:07.508Z,-6.70
2018-02-09T04:54:36.438Z,-6.80
2018-02-09T04:57:05.590Z,-6.80
2018-02-09T04:59:35.240Z,-6.70
2018-02-09T05:02:04.224Z,-6.80
2018-02-09T05:04:33.907Z,-6.80
2018-02-09T05:07:02.948Z,-6.80
2018-02-09T05:09:32.704Z,-6.80
2018-02-09T05:12:01.701Z,-6.90
2018-02-09T05:14:30.611Z,-6.80
2018-02-09T05:17:01.928Z,-6.80
2018-02-09T05:19:31.169Z,-6.80
2018-02-09T05:22:00.907Z,-6.80
2018-02-09T05:24:31.014Z,-6.70
2018-02-09T05:27:00.030Z,-6.80
2018-02-09T05:29:29.033Z,-6.50
2018-02-09T05:31:57.989Z,-6.50
2018-02-09T05:34:26.885Z,-6.60
2018-02-09T05:36:56.661Z,-6.70
2018-02-09T05:39:25.622Z,-6.70
2018-02-09T05:41:55.632Z,-6.70
2018-02-09T05:44:24.623Z,-6.80
2018-02-09T05:46:53.640Z,-6.70
2018-02-09T05:49:22.654Z,-6.70
2018-02-09T05:51:51.572Z,-6.70
2018-02-09T05:54:20.514Z,-6.70
2018-02-09T05:56:49.446Z,-6.80
2018-02-09T05:59:19.183Z,-6.80
2018-02-09T06:01:51.251Z,-6.80
2018-02-09T06:04:20.251Z,-6.90
2018-02-09T06:06:49.972Z,-6.90
2018-02-09T06:09:18.919Z,-7.00
2018-02-09T06:11:47.893Z,-6.90
2018-02-09T06:14:16.866Z,-6.90
2018-02-09T06:16:45.917Z,-6.80
2018-02-09T06:19:15.011Z,-6.70
2018-02-09T06:21:44.733Z,-6.20
2018-02-09T06:24:13.797Z,-6.30
2018-02-09T06:26:47.364Z,-6.10
2018-02-09T06:29:16.347Z,-5.90
2018-02-09T06:31:45.344Z,-5.70
2018-02-09T06:34:14.413Z,-5.50
2018-02-09T06:36:43.429Z,-5.40
2018-02-09T06:39:12.441Z,-5.30
2018-02-09T06:41:41.385Z,-5.10
2018-02-09T06:44:11.211Z,-4.80
2018-02-09T06:46:40.164Z,-4.90
2018-02-09T06:49:09.211Z,-4.80
2018-02-09T06:51:38.957Z,-4.70
2018-02-09T06:54:07.933Z,-4.80
2018-02-09T06:56:37.011Z,-4.70
2018-02-09T06:59:06.051Z,-4.70
2018-02-09T07:01:35.880Z,-4.60
2018-02-09T07:04:05.734Z,-4.60
2018-02-09T07:06:34.733Z,-4.60
2018-02-09T07:09:04.049Z,-4.40
2018-02-09T07:11:33.056Z,-4.40
2018-02-09T07:14:02.020Z,-4.30
2018-02-09T07:16:31.021Z,-4.20
2018-02-09T07:18:59.993Z,-4.20
2018-02-09T07:21:29.760Z,-4.10
2018-02-09T07:23:59.549Z,-4.10
2018-02-09T07:26:28.702Z,-4.10
2018-02-09T07:28:57.869Z,-4.00
2018-02-09T07:31:26.883Z,-4.00
2018-02-09T07:33:56.740Z,-4.00
2018-02-09T07:36:26.104Z,-4.10
2018-02-09T07:38:55.158Z,-4.00
2018-02-09T07:41:24.308Z,-3.90
2018-02-09T07:43:53.345Z,-3.90
2018-02-09T07:46:22.325Z,-3.80
2018-02-09T07:48:51.424Z,-3.70
2018-02-09T07:51:20.638Z,-3.60
2018-02-09T07:53:50.370Z,-3.50
2018-02-09T07:56:19.339Z,-3.50
2018-02-09T07:58:49.180Z,-3.50
2018-02-09T08:01:18.133Z,-3.60
2018-02-09T08:03:47.097Z,-3.40
2018-02-09T08:06:16.139Z,-3.40
2018-02-09T08:08:45.940Z,-3.40
2018-02-09T08:11:15.748Z,-3.40
2018-02-09T08:13:44.995Z,-3.50
2018-02-09T08:16:14.249Z,-3.30
2018-02-09T08:18:44.011Z,-3.20
2018-02-09T08:21:13.035Z,-3.30
2018-02-09T08:23:42.874Z,-3.30
2018-02-09T08:26:12.622Z,-3.30
2018-02-09T08:28:41.691Z,-3.30
2018-02-09T08:31:11.498Z,-3.20
2018-02-09T08:33:41.278Z,-3.10
2018-02-09T08:36:10.300Z,-3.20
2018-02-09T08:38:40.032Z,-3.00
2018-02-09T08:41:09.809Z,-2.90
2018-02-09T08:43:38.872Z,-3.00
2018-02-09T08:46:07.907Z,-2.90
2018-02-09T08:48:37.688Z,-2.80
2018-02-09T08:51:07.742Z,-2.70
2018-02-09T08:53:37.470Z,-2.70
2018-02-09T08:56:06.530Z,-2.80
2018-02-09T08:58:36.333Z,-2.70
2018-02-09T09:01:05.357Z,-2.80
2018-02-09T09:03:35.142Z,-2.60
2018-02-09T09:06:05.173Z,-2.50
2018-02-09T09:08:35.006Z,-2.40
2018-02-09T09:12:06.404Z,-2.40
2018-02-09T09:14:35.744Z,-2.30
2018-02-09T09:17:05.624Z,-2.20
2018-02-09T09:19:34.703Z,-2.20
2018-02-09T09:22:04.429Z,-2.10
2018-02-09T09:24:33.393Z,-2.20
2018-02-09T09:27:02.678Z,-2.10
2018-02-09T09:29:31.668Z,-2.00
2018-02-09T09:32:31.221Z,-2.00
2018-02-09T09:35:00.202Z,-2.00
2018-02-09T09:37:29.192Z,-2.10
2018-02-09T09:39:58.229Z,-2.00
2018-02-09T09:42:28.021Z,-1.80
2018-02-09T09:44:56.964Z,-1.90
2018-02-09T09:47:26.061Z,-1.70
2018-02-09T09:49:55.093Z,-1.60
2018-02-09T09:52:24.206Z,-1.50
2018-02-09T09:54:54.148Z,-1.10
2018-02-09T09:57:24.130Z,-0.90
2018-02-09T09:59:54.041Z,-1.00
2018-02-09T10:02:31.837Z,-1.00
2018-02-09T10:05:01.634Z,-1.10
2018-02-09T10:07:30.634Z,-1.20
2018-02-09T10:13:30.979Z,-1.20
2018-02-09T10:15:59.951Z,-1.20
2018-02-09T10:18:28.904Z,-1.00
2018-02-09T10:20:58.604Z,-1.00
2018-02-09T10:23:28.288Z,-1.00
2018-02-09T10:25:58.011Z,-1.10
2018-02-09T10:28:31.946Z,-1.20
2018-02-09T10:31:01.836Z,-1.20
2018-02-09T10:33:31.827Z,-1.20
2018-02-09T10:36:00.799Z,-1.20
2018-02-09T10:38:29.892Z,-1.10
2018-02-09T10:40:59.017Z,-1.10
2018-02-09T10:43:27.965Z,-1.10
2018-02-09T10:45:57.034Z,-1.10
2018-02-09T10:48:26.809Z,-0.90
2018-02-09T10:50:56.634Z,-0.80
2018-02-09T10:53:25.740Z,-0.90
2018-02-09T10:55:55.558Z,-0.70
2018-02-09T10:58:24.905Z,-0.70
2018-02-09T11:00:58.059Z,-0.80
2018-02-09T11:03:27.865Z,-0.80
2018-02-09T11:05:57.651Z,-0.70
2018-02-09T11:08:26.686Z,-0.80
2018-02-09T11:10:56.645Z,-0.50
2018-02-09T11:13:29.904Z,-0.50
2018-02-09T11:15:59.233Z,-0.30
2018-02-09T11:18:29.064Z,-0.30
2018-02-09T11:20:58.415Z,-0.40
2018-02-09T11:23:28.289Z,-0.40
2018-02-09T11:25:57.580Z,-0.40
2018-02-09T11:28:27.831Z,-0.40
2018-02-09T11:30:56.923Z,-0.40
2018-02-09T11:33:26.546Z,-0.50
2018-02-09T11:35:55.693Z,-0.70
2018-02-09T11:38:24.719Z,-0.50
2018-02-09T11:40:53.728Z,-0.70
2018-02-09T11:43:23.652Z,-0.70
2018-02-09T11:46:56.093Z,-0.80
2018-02-09T11:49:25.176Z,-0.80
2018-02-09T11:51:54.140Z,-0.80
2018-02-09T11:54:23.197Z,-0.90
2018-02-09T11:56:52.239Z,-0.90
2018-02-09T11:59:21.217Z,-0.80
2018-02-09T12:01:50.215Z,-0.80
2018-02-09T12:04:26.221Z,-0.70
2018-02-09T12:06:55.445Z,-0.60
2018-02-09T12:09:30.195Z,-0.50
2018-02-09T12:11:59.385Z,-0.50
2018-02-09T12:14:28.372Z,-0.40
2018-02-09T12:16:57.645Z,-0.50
2018-02-09T12:19:32.304Z,-0.60
2018-02-09T12:22:04.368Z,-0.60
2018-02-09T12:24:33.517Z,-0.70
2018-02-09T12:27:03.431Z,-0.40
2018-02-09T12:29:36.471Z,-0.30
2018-02-09T12:32:05.264Z,-0.40
2018-02-09T12:34:34.324Z,-0.20
2018-02-09T12:37:04.340Z,-0.30
2018-02-09T12:39:34.152Z,-0.40
2018-02-09T12:42:03.361Z,-0.40
2018-02-09T12:44:33.479Z,-0.30
2018-02-09T12:47:02.687Z,-0.40
2018-02-09T12:49:31.696Z,-0.30
2018-02-09T12:52:00.749Z,-0.20
2018-02-09T12:54:30.570Z,-0.50
2018-02-09T12:57:00.334Z,-0.40
2018-02-09T12:59:29.336Z,-0.40
2018-02-09T13:01:58.298Z,-0.40
2018-02-09T13:04:27.457Z,-0.50
2018-02-09T13:06:57.288Z,-0.40
2018-02-09T13:09:26.476Z,-0.40
2018-02-09T13:11:56.373Z,-0.60
2018-02-09T13:17:04.601Z,-0.60
2018-02-09T13:19:34.554Z,-0.60
2018-02-09T13:22:04.065Z,-0.60
2018-02-09T13:24:34.149Z,-0.50
2018-02-09T13:27:04.019Z,-0.50
2018-02-09T13:29:33.040Z,-0.50
2018-02-09T13:32:02.298Z,-0.50
2018-02-09T13:34:32.242Z,-0.50
2018-02-09T13:37:14.551Z,-0.40
2018-02-09T13:39:43.676Z,-0.50
2018-02-09T13:42:13.582Z,-0.60
2018-02-09T13:44:43.387Z,-0.50
2018-02-09T13:47:12.474Z,-0.50
2018-02-09T13:49:41.504Z,-0.40
2018-02-09T13:52:10.553Z,-0.60
2018-02-09T13:54:39.847Z,-0.50
2018-02-09T13:57:08.920Z,-0.60
2018-02-09T14:04:07.248Z,-0.50
2018-02-09T14:06:36.376Z,-0.40
2018-02-09T14:09:06.864Z,-0.30
2018-02-09T14:11:36.109Z,-0.30
2018-02-09T14:18:36.238Z,-0.30
2018-02-09T14:21:05.270Z,-0.40
2018-02-09T14:23:34.272Z,-0.50
2018-02-09T14:26:03.275Z,-0.50
2018-02-09T14:28:36.845Z,-0.50
2018-02-09T14:31:05.961Z,-0.50
2018-02-09T14:33:35.843Z,-0.30
2018-02-09T14:36:05.661Z,-0.30
2018-02-09T14:38:35.788Z,-0.20
2018-02-09T14:41:06.003Z,-0.30
2018-02-09T14:43:35.776Z,-0.30
2018-02-09T14:46:05.671Z,-0.20
2018-02-09T14:48:34.741Z,-0.30
2018-02-09T14:51:03.759Z,-0.20
2018-02-09T14:53:32.730Z,-0.20
2018-02-09T14:56:01.783Z,-0.10
2018-02-09T14:58:30.961Z,-0.10
2018-02-09T15:01:14.725Z,-0.10
2018-02-09T15:03:43.710Z,-0.20
2018-02-09T15:06:12.818Z,-0.10
2018-02-09T15:08:42.867Z,-0.20
2018-02-09T15:11:11.909Z,-0.30
2018-02-09T15:13:41.059Z,-0.30
2018-02-09T15:16:10.118Z,-0.30
2018-02-09T15:18:39.964Z,-0.30
2018-02-09T15:21:09.127Z,-0.40
2018-02-09T15:23:38.179Z,-0.40
2018-02-09T15:26:08.101Z,-0.40
2018-02-09T15:28:38.083Z,-0.40
2018-02-09T15:31:07.369Z,-0.50
2018-02-09T15:33:37.132Z,-0.40
2018-02-09T15:36:06.272Z,-0.50
2018-02-09T15:38:36.034Z,-0.30
2018-02-09T15:41:05.463Z,-0.40
2018-02-09T15:43:35.277Z,-0.40
2018-02-09T15:46:05.591Z,-0.50
2018-02-09T15:48:34.643Z,-0.50
2018-02-09T15:51:04.473Z,-0.50
2018-02-09T15:53:34.317Z,-0.60
2018-02-09T15:56:04.913Z,-0.60
2018-02-09T15:58:34.679Z,-0.50
2018-02-09T16:01:04.911Z,-0.50
2018-02-09T16:03:34.701Z,-0.60
2018-02-09T16:06:03.703Z,-0.60
2018-02-09T16:08:33.700Z,-0.60
2018-02-09T16:11:04.850Z,-0.70
2018-02-09T16:13:33.941Z,-0.70
2018-02-09T16:16:03.985Z,-0.60
2018-02-09T16:18:33.785Z,-0.60
2018-02-09T16:21:03.579Z,-0.60
2018-02-09T16:23:33.606Z,-0.60
2018-02-09T16:26:02.773Z,-0.70
2018-02-09T16:28:32.182Z,-0.70
2018-02-09T16:31:02.814Z,-0.70
2018-02-09T16:33:31.905Z,-0.70
2018-02-09T16:36:01.600Z,-0.70
2018-02-09T16:38:30.702Z,-0.70
2018-02-09T16:41:00.135Z,-0.60
2018-02-09T16:43:29.662Z,-0.60
2018-02-09T16:45:59.454Z,-0.70
2018-02-09T16:48:28.447Z,-0.70
2018-02-09T16:50:58.325Z,-0.80
2018-02-09T16:53:27.332Z,-0.80
2018-02-09T16:55:56.505Z,-0.70
2018-02-09T16:58:25.602Z,-0.70
2018-02-09T17:00:54.615Z,-0.70
2018-02-09T17:03:23.639Z,-0.70
2018-02-09T17:05:53.444Z,-0.70
2018-02-09T17:08:22.539Z,-0.80
2018-02-09T17:10:51.606Z,-0.70
2018-02-09T17:13:20.806Z,-0.70
2018-02-09T17:15:49.905Z,-0.70
2018-02-09T17:18:19.117Z,-0.70
2018-02-09T17:20:49.041Z,-0.70
2018-02-09T17:23:19.023Z,-0.70
2018-02-09T17:25:48.053Z,-0.80
2018-02-09T17:28:17.867Z,-0.80
2018-02-09T17:30:47.634Z,-0.70
2018-02-09T17:33:17.411Z,-0.70
2018-02-09T17:35:50.418Z,-0.80
2018-02-09T17:38:20.092Z,-0.70
2018-02-09T17:40:49.831Z,-0.70
2018-02-09T17:43:18.863Z,-0.80
2018-02-09T17:45:48.091Z,-0.80
2018-02-09T17:48:18.258Z,-0.80
2018-02-09T17:50:47.390Z,-0.80
2018-02-09T17:53:16.433Z,-0.80
2018-02-09T17:55:45.595Z,-0.70
2018-02-09T17:58:15.343Z,-0.70
2018-02-09T18:00:44.430Z,-0.80
2018-02-09T18:03:14.202Z,-0.70
2018-02-09T18:05:44.453Z,-0.70
2018-02-09T18:08:14.219Z,-0.70
2018-02-09T18:10:43.392Z,-0.70
2018-02-09T18:13:12.388Z,-0.60
2018-02-09T18:15:41.520Z,-0.70
2018-02-09T18:18:10.526Z,-0.60
2018-02-09T18:20:40.324Z,-0.70
2018-02-09T18:23:13.094Z,-0.70
2018-02-09T18:25:42.141Z,-0.70
2018-02-09T18:28:12.340Z,-0.60
2018-02-09T18:30:42.105Z,-0.60
2018-02-09T18:33:11.941Z,-0.70
2018-02-09T18:35:40.968Z,-0.70
2018-02-09T18:38:11.049Z,-0.60
2018-02-09T18:40:40.031Z,-0.70
2018-02-09T18:43:13.577Z,-0.70
2018-02-09T18:45:43.409Z,-0.60
2018-02-09T18:48:12.389Z,-0.70
2018-02-09T18:50:41.397Z,-0.60
2018-02-09T18:53:10.388Z,-0.60
2018-02-09T18:55:39.461Z,-0.60
2018-02-09T18:58:09.216Z,-0.60
2018-02-09T19:00:38.210Z,-0.60
2018-02-09T19:03:07.284Z,-0.60
2018-02-09T19:05:36.262Z,-0.60
2018-02-09T19:08:05.347Z,-0.60
2018-02-09T19:10:35.108Z,-0.60
2018-02-09T19:13:04.873Z,-0.60
2018-02-09T19:15:34.637Z,-0.60
2018-02-09T19:18:04.106Z,-0.60
2018-02-09T19:20:33.049Z,-0.50
2018-02-09T19:23:02.777Z,-0.60
2018-02-09T19:25:32.493Z,-0.50
2018-02-09T19:28:02.801Z,-0.50
2018-02-09T19:30:31.887Z,-0.60
2018-02-09T19:33:04.672Z,-0.50
2018-02-09T19:35:33.664Z,-0.50
2018-02-09T19:38:02.762Z,-0.50
2018-02-09T19:40:31.741Z,-0.50
2018-02-09T19:43:01.516Z,-0.50
2018-02-09T19:45:30.534Z,-0.50
2018-02-09T19:47:59.549Z,-0.50
2018-02-09T19:50:28.629Z,-0.60
2018-02-09T19:52:57.690Z,-0.60
2018-02-09T19:55:26.776Z,-0.50
2018-02-09T19:57:55.786Z,-0.60
2018-02-09T20:00:24.795Z,-0.50
2018-02-09T20:02:53.821Z,-0.50
2018-02-09T20:05:53.754Z,-0.40
2018-02-09T20:08:23.493Z,-0.40
2018-02-09T20:10:52.522Z,-0.50
2018-02-09T20:13:21.468Z,-0.40
2018-02-09T20:15:50.545Z,-0.40
2018-02-09T20:18:19.582Z,-0.50
2018-02-09T20:20:48.585Z,-0.50
2018-02-09T20:23:17.579Z,-0.40
2018-02-09T20:25:46.575Z,-0.40
2018-02-09T20:28:15.574Z,-0.30
2018-02-09T20:30:45.324Z,-0.40
2018-02-09T20:33:15.369Z,-0.40
2018-02-09T20:35:44.342Z,-0.50
2018-02-09T20:38:13.332Z,-0.40
2018-02-09T20:40:43.040Z,-0.40
2018-02-09T20:43:12.781Z,-0.30
2018-02-09T20:45:41.813Z,-0.40
2018-02-09T20:48:10.772Z,-0.30
2018-02-09T20:50:39.763Z,-0.40
2018-02-09T20:53:09.562Z,-0.40
2018-02-09T20:55:38.590Z,-0.50
2018-02-09T20:58:07.757Z,-0.40
2018-02-09T21:00:37.527Z,-0.30
2018-02-09T21:03:07.335Z,-0.30
2018-02-09T21:05:37.107Z,-0.40
2018-02-09T21:08:06.148Z,-0.40
2018-02-09T21:10:35.940Z,-0.40
2018-02-09T21:13:05.757Z,-0.40
2018-02-09T21:15:35.010Z,-0.40
2018-02-09T21:18:04.545Z,-0.40
2018-02-09T21:20:33.504Z,-0.40
2018-02-09T21:23:02.582Z,-0.40
2018-02-09T21:25:31.641Z,-0.30
2018-02-09T21:28:00.777Z,-0.40
2018-02-09T21:30:29.741Z,-0.30
2018-02-09T21:32:58.831Z,-0.30
2018-02-09T21:35:28.728Z,-0.30
2018-02-09T21:37:57.696Z,-0.40
2018-02-09T21:40:26.665Z,-0.40
2018-02-09T21:42:55.681Z,-0.30
2018-02-09T21:45:24.853Z,-0.30
2018-02-09T21:47:53.863Z,-0.40
2018-02-09T21:50:22.969Z,-0.40
2018-02-09T21:52:52.185Z,-0.30
2018-02-09T21:56:40.693Z,-0.30
2018-02-09T21:59:09.638Z,-0.30
2018-02-09T22:01:38.635Z,-0.40
2018-02-09T22:04:07.630Z,-0.40
2018-02-09T22:06:36.723Z,-0.30
2018-02-09T22:09:05.839Z,-0.30
2018-02-09T22:11:35.685Z,-0.30
2018-02-09T22:14:07.300Z,-0.40
2018-02-09T22:16:36.460Z,-0.30
2018-02-09T22:19:05.448Z,-0.40
2018-02-09T22:21:34.464Z,-0.40
2018-02-09T22:24:03.836Z,-0.40
2018-02-09T22:26:33.080Z,-0.30
2018-02-09T22:29:02.093Z,-0.40
2018-02-09T22:31:31.854Z,-0.40
2018-02-09T22:34:00.873Z,-0.40
2018-02-09T22:36:29.837Z,-0.40
2018-02-09T22:38:58.833Z,-0.30
2018-02-09T22:41:27.865Z,-0.40
2018-02-09T22:43:57.626Z,-0.40
2018-02-09T22:46:26.596Z,-0.40
2018-02-09T22:48:55.592Z,-0.40
2018-02-09T22:51:24.524Z,-0.30
2018-02-09T22:53:58.960Z,-0.30
2018-02-09T22:56:27.927Z,-0.40
2018-02-09T22:58:56.902Z,-0.40
2018-02-09T23:01:25.879Z,-0.30
2018-02-09T23:03:54.852Z,-0.30
2018-02-09T23:06:23.781Z,-0.40
2018-02-09T23:08:52.805Z,-0.40
2018-02-09T23:11:21.794Z,-0.40
2018-02-09T23:13:50.753Z,-0.30
2018-02-09T23:16:24.181Z,-0.40
2018-02-09T23:18:56.784Z,-0.30
2018-02-09T23:21:25.717Z,-0.30
2018-02-09T23:23:54.716Z,-0.30
2018-02-09T23:26:23.775Z,-0.30
2018-02-09T23:28:53.560Z,-0.50
2018-02-09T23:31:22.550Z,-0.50
2018-02-09T23:33:51.487Z,-0.40
2018-02-09T23:36:20.471Z,-0.50
2018-02-09T23:38:50.196Z,-0.50
2018-02-09T23:41:19.905Z,-0.50
2018-02-09T23:43:48.850Z,-0.60
2018-02-09T23:46:23.965Z,-0.60
2018-02-09T23:48:53.748Z,-0.60
2018-02-09T23:51:22.690Z,-0.70
2018-02-09T23:53:51.983Z,-0.70
2018-02-09T23:56:20.940Z,-0.70
2018-02-09T23:58:49.920Z,-0.70
